createdAt,value
2018-12-20T00:04:50.858Z,76.10
2018-12-20T00:09:53.635Z,76.30
2018-12-20T00:14:56.335Z,76.20
2018-12-20T00:19:59.749Z,77.10
2018-12-20T00:25:03.125Z,77.80
2018-12-20T00:30:07.429Z,78.40
2018-12-20T00:35:10.522Z,78.70
2018-12-20T00:40:13.501Z,78.70
2018-12-20T00:45:16.177Z,78.70
2018-12-20T00:50:18.833Z,78.40
2018-12-20T00:55:22.066Z,77.80
2018-12-20T01:00:25.734Z,77.50
2018-12-20T01:05:28.400Z,76.40
2018-12-20T01:10:33.953Z,76.80
2018-12-20T01:15:36.533Z,76.80
2018-12-20T01:20:39.219Z,76.70
2018-12-20T01:25:42.144Z,76.80
2018-12-20T01:30:45.265Z,76.90
2018-12-20T01:35:48.672Z,76.80
2018-12-20T01:40:51.825Z,76.40
2018-12-20T01:45:54.473Z,75.40
2018-12-20T01:50:57.491Z,77.10
2018-12-20T01:56:00.413Z,77.40
2018-12-20T02:01:03.270Z,76.80
2018-12-20T02:06:08.281Z,76.70
2018-12-20T02:11:10.953Z,76.40
2018-12-20T02:16:13.809Z,76.20
2018-12-20T02:21:16.449Z,76.20
2018-12-20T02:26:22.168Z,75.50
2018-12-20T02:31:24.884Z,76.10
2018-12-20T02:36:27.466Z,76.00
2018-12-20T02:41:30.281Z,76.70
2018-12-20T02:46:33.809Z,76.70
2018-12-20T02:51:36.463Z,76.80
2018-12-20T02:56:39.915Z,76.20
2018-12-20T03:01:42.764Z,75.40
2018-12-20T03:06:45.628Z,75.10
2018-12-20T03:11:48.745Z,74.70
2018-12-20T03:16:55.264Z,75.00
2018-12-20T03:21:57.977Z,74.90
2018-12-20T03:27:00.799Z,75.10
2018-12-20T03:32:04.554Z,75.40
2018-12-20T03:37:08.360Z,75.60
2018-12-20T03:42:11.093Z,75.90
2018-12-20T03:47:14.182Z,76.30
2018-12-20T03:52:17.855Z,76.20
2018-12-20T03:57:20.570Z,76.30
2018-12-20T04:02:27.532Z,76.20
2018-12-20T04:07:30.750Z,76.00
2018-12-20T04:12:34.220Z,76.00
2018-12-20T04:17:37.450Z,76.60
2018-12-20T04:22:40.211Z,76.40
2018-12-20T04:27:43.134Z,75.90
2018-12-20T04:32:46.063Z,75.50
2018-12-20T04:37:48.715Z,75.70
2018-12-20T04:42:51.288Z,75.40
2018-12-20T04:47:54.418Z,75.60
2018-12-20T04:52:57.606Z,75.30
2018-12-20T04:58:00.310Z,73.90
2018-12-20T05:03:03.603Z,74.80
2018-12-20T05:08:06.475Z,76.30
2018-12-20T05:13:10.585Z,76.30
2018-12-20T05:18:13.733Z,76.80
2018-12-20T05:23:17.427Z,76.90
2018-12-20T05:28:20.687Z,76.10
2018-12-20T05:33:23.526Z,76.40
2018-12-20T05:38:26.302Z,75.60
2018-12-20T05:43:29.202Z,75.20
2018-12-20T05:48:32.054Z,75.00
2018-12-20T05:53:34.923Z,74.70
2018-12-20T05:58:37.812Z,74.30
2018-12-20T06:03:40.927Z,75.70
2018-12-20T06:08:44.246Z,75.50
2018-12-20T06:13:47.585Z,75.30
2018-12-20T06:18:53.575Z,75.10
2018-12-20T06:23:56.274Z,74.90
2018-12-20T06:29:00.757Z,75.60
2018-12-20T06:34:03.407Z,75.70
2018-12-20T06:39:07.638Z,76.50
2018-12-20T06:44:10.553Z,76.80
2018-12-20T06:49:13.138Z,76.50
2018-12-20T06:54:15.858Z,76.40
2018-12-20T06:59:18.682Z,76.10
2018-12-20T07:04:21.267Z,75.90
2018-12-20T07:09:24.117Z,75.40
2018-12-20T07:14:28.461Z,75.70
2018-12-20T07:19:31.014Z,75.80
2018-12-20T07:24:33.570Z,76.00
2018-12-20T07:29:36.523Z,76.00
2018-12-20T07:34:39.079Z,75.70
2018-12-20T07:39:43.108Z,75.60
2018-12-20T07:44:45.691Z,76.30
2018-12-20T07:49:48.530Z,75.70
2018-12-20T07:54:51.098Z,75.70
2018-12-20T07:59:53.666Z,75.90
2018-12-20T08:04:56.423Z,75.70
2018-12-20T08:09:59.098Z,74.70
2018-12-20T08:15:02.234Z,74.40
2018-12-20T08:20:06.238Z,74.50
2018-12-20T08:25:09.077Z,73.70
2018-12-20T08:30:12.203Z,73.40
2018-12-20T08:35:14.774Z,73.50
2018-12-20T08:40:17.334Z,73.30
2018-12-20T08:45:19.900Z,74.10
2018-12-20T08:50:22.820Z,73.40
2018-12-20T08:55:25.537Z,72.40
2018-12-20T09:00:28.298Z,71.70
2018-12-20T09:05:31.478Z,71.20
2018-12-20T09:10:34.664Z,71.00
2018-12-20T09:15:37.506Z,71.70
2018-12-20T09:20:40.074Z,69.80
2018-12-20T09:25:42.680Z,70.10
2018-12-20T09:30:45.302Z,70.60
2018-12-20T09:35:47.898Z,70.50
2018-12-20T09:40:50.477Z,69.20
2018-12-20T09:45:53.776Z,69.50
2018-12-20T09:50:56.983Z,67.80
2018-12-20T09:56:00.134Z,67.20
2018-12-20T10:01:02.711Z,67.10
2018-12-20T10:06:07.935Z,66.80
2018-12-20T10:11:10.989Z,66.40
2018-12-20T10:16:16.194Z,66.30
2018-12-20T10:21:19.411Z,65.60
2018-12-20T10:26:22.426Z,64.70
2018-12-20T10:31:25.020Z,63.10
2018-12-20T10:36:27.629Z,62.80
2018-12-20T10:41:32.862Z,59.20
2018-12-20T10:46:36.448Z,56.90
2018-12-20T10:51:39.100Z,53.20
2018-12-20T10:56:46.043Z,50.80
2018-12-20T11:01:50.814Z,51.50
2018-12-20T11:12:37.215Z,54.10
2018-12-20T11:17:42.439Z,51.80
2018-12-20T11:22:45.756Z,50.90
2018-12-20T11:27:48.993Z,51.70
2018-12-20T11:32:54.250Z,50.40
2018-12-20T11:37:56.814Z,46.30
2018-12-20T11:42:59.392Z,45.40
2018-12-20T11:48:01.993Z,47.40
2018-12-20T11:53:06.526Z,46.20
2018-12-20T11:58:09.484Z,46.00
2018-12-20T12:03:13.665Z,47.30
2018-12-20T12:08:16.293Z,46.10
2018-12-20T12:13:19.806Z,47.00
2018-12-20T12:18:28.101Z,48.50
2018-12-20T12:23:30.703Z,49.70
2018-12-20T12:28:36.413Z,49.90
2018-12-20T12:33:39.020Z,50.60
2018-12-20T12:38:41.652Z,52.50
2018-12-20T12:43:44.360Z,52.80
2018-12-20T12:48:46.948Z,53.20
2018-12-20T12:53:49.974Z,54.10
2018-12-20T12:58:52.573Z,56.30
2018-12-20T13:03:57.350Z,56.70
2018-12-20T13:09:02.294Z,53.70
2018-12-20T13:14:04.876Z,53.10
2018-12-20T13:19:09.391Z,53.20
2018-12-20T13:24:12.000Z,53.30
2018-12-20T13:29:16.272Z,54.00
2018-12-20T13:34:19.860Z,55.30
2018-12-20T13:39:22.829Z,57.00
2018-12-20T13:44:25.439Z,58.50
2018-12-20T13:49:28.518Z,60.00
2018-12-20T13:54:33.725Z,59.80
2018-12-20T13:59:36.303Z,61.50
2018-12-20T14:04:40.027Z,61.80
2018-12-20T14:09:42.636Z,62.80
2018-12-20T14:14:47.826Z,63.00
2018-12-20T14:19:50.649Z,63.20
2018-12-20T14:24:53.404Z,63.60
2018-12-20T14:29:56.235Z,62.40
2018-12-20T14:34:58.923Z,63.10
2018-12-20T14:40:03.012Z,62.70
2018-12-20T14:45:06.172Z,63.20
2018-12-20T14:50:13.102Z,63.00
2018-12-20T14:55:15.677Z,63.00
2018-12-20T15:00:19.459Z,63.70
2018-12-20T15:05:22.760Z,63.70
2018-12-20T15:10:26.759Z,63.10
2018-12-20T15:15:29.383Z,63.20
2018-12-20T15:20:40.241Z,62.90
2018-12-20T15:25:36.804Z,63.00
2018-12-20T15:30:39.533Z,62.40
2018-12-20T15:35:43.209Z,62.60
2018-12-20T15:40:45.800Z,62.10
2018-12-20T15:45:48.458Z,61.20
2018-12-20T15:50:51.059Z,61.20
2018-12-20T15:55:54.076Z,61.50
2018-12-20T16:00:56.655Z,61.30
2018-12-20T16:05:59.906Z,61.80
2018-12-20T16:11:02.780Z,62.00
2018-12-20T16:16:05.641Z,62.10
2018-12-20T16:21:08.220Z,61.90
2018-12-20T16:26:11.165Z,62.40
2018-12-20T16:31:14.477Z,62.00
2018-12-20T16:36:19.646Z,61.60
2018-12-20T16:41:22.681Z,62.30
2018-12-20T16:46:26.410Z,62.20
2018-12-20T16:51:29.577Z,61.80
2018-12-20T16:56:32.150Z,62.80
2018-12-20T17:01:34.719Z,62.10
2018-12-20T17:06:43.120Z,62.20
2018-12-20T17:11:45.880Z,62.00
2018-12-20T17:16:48.561Z,61.90
2018-12-20T17:21:51.185Z,62.10
2018-12-20T17:26:53.853Z,62.00
2018-12-20T17:31:56.542Z,62.00
2018-12-20T17:36:59.182Z,62.40
2018-12-20T17:42:01.766Z,62.80
2018-12-20T17:47:04.372Z,63.10
2018-12-20T17:52:07.028Z,63.00
2018-12-20T17:57:09.614Z,62.90
2018-12-20T18:02:12.218Z,62.90
2018-12-20T18:07:16.112Z,63.10
2018-12-20T18:12:18.989Z,63.10
2018-12-20T18:17:21.623Z,64.00
2018-12-20T18:22:24.794Z,64.90
2018-12-20T18:27:28.729Z,65.30
2018-12-20T18:32:31.357Z,65.50
2018-12-20T18:37:34.006Z,65.50
2018-12-20T18:42:36.638Z,65.40
2018-12-20T18:47:39.579Z,66.10
2018-12-20T18:52:42.272Z,65.90
2018-12-20T18:57:44.931Z,65.70
2018-12-20T19:02:48.147Z,65.50
2018-12-20T19:07:51.023Z,65.50
2018-12-20T19:12:53.717Z,65.50
2018-12-20T19:17:56.800Z,65.60
2018-12-20T19:22:59.486Z,65.80
2018-12-20T19:28:02.054Z,66.00
2018-12-20T19:33:06.637Z,65.20
2018-12-20T19:38:09.210Z,65.10
2018-12-20T19:43:11.790Z,64.40
2018-12-20T19:48:14.599Z,64.90
2018-12-20T19:53:17.287Z,65.10
2018-12-20T19:58:20.011Z,64.00
2018-12-20T20:03:22.766Z,63.80
2018-12-20T20:08:25.638Z,63.20
2018-12-20T20:13:30.814Z,63.40
2018-12-20T20:18:34.778Z,63.50
2018-12-20T20:23:37.476Z,63.80
2018-12-20T20:28:40.548Z,63.50
2018-12-20T20:33:43.862Z,62.90
2018-12-20T20:38:46.515Z,62.50
2018-12-20T20:43:51.460Z,62.10
2018-12-20T20:48:54.074Z,62.60
2018-12-20T20:53:56.657Z,62.50
2018-12-20T20:58:59.229Z,62.20
2018-12-20T21:04:03.717Z,62.10
2018-12-20T21:09:07.461Z,61.90
2018-12-20T21:14:10.097Z,62.40
2018-12-20T21:19:13.392Z,62.30
2018-12-20T21:24:16.065Z,62.50
2018-12-20T21:29:19.117Z,62.70
2018-12-20T21:34:21.737Z,63.20
2018-12-20T21:39:24.308Z,63.60
2018-12-20T21:44:27.231Z,63.50
2018-12-20T21:49:29.920Z,63.10
2018-12-20T21:54:35.121Z,63.00
2018-12-20T21:59:37.696Z,62.70
2018-12-20T22:04:40.568Z,63.00
2018-12-20T22:09:43.499Z,62.70
2018-12-20T22:14:46.108Z,62.80
2018-12-20T22:19:48.724Z,62.60
2018-12-20T22:24:51.476Z,63.00
2018-12-20T22:29:54.061Z,63.20
2018-12-20T22:34:57.558Z,63.30
2018-12-20T22:40:00.370Z,63.50
2018-12-20T22:45:03.279Z,63.70
2018-12-20T22:50:07.771Z,63.80
2018-12-20T22:55:10.344Z,63.70
2018-12-20T23:00:14.382Z,63.60
2018-12-20T23:05:16.959Z,64.20
2018-12-20T23:10:20.189Z,64.40
2018-12-20T23:15:25.274Z,64.50
2018-12-20T23:20:27.863Z,64.40
2018-12-20T23:25:30.443Z,64.50
2018-12-20T23:30:33.025Z,64.30
2018-12-20T23:35:35.593Z,64.40
2018-12-20T23:40:38.165Z,64.60
2018-12-20T23:45:42.720Z,65.00
2018-12-20T23:50:45.541Z,65.10
2018-12-20T23:55:48.736Z,64.60
